Time;durP1;ratioP1;P1;durP2;ratioP2;P2;SDS_P1;SDS_P2;PMS_P1;PMS_P2;Temp;Humidity;BMP_temperature;BMP_pressure;BME280_temperature;BME280_humidity;BME280_pressure;Samples;Min_cycle;Max_cycle;Signal;HPM_P1;HPM_P2
2021/07/31 00:01:44;;;;;;;13.30;1.40;;;16.60;99.90;;;;;;5107067;28;20452;-85
2021/07/31 00:04:11;;;;;;;17.73;2.00;;;16.60;99.90;;;;;;5106904;28;20448;-85
2021/07/31 00:06:37;;;;;;;15.60;1.60;;;16.70;99.90;;;;;;5109745;28;20447;-85
2021/07/31 00:09:04;;;;;;;13.70;1.53;;;16.60;99.90;;;;;;5105129;28;20514;-86
2021/07/31 00:11:31;;;;;;;17.57;2.00;;;16.60;99.90;;;;;;5108600;28;20458;-84
2021/07/31 00:14:01;;;;;;;14.70;1.60;;;16.60;99.90;;;;;;5106491;28;20955;-85
2021/07/31 00:16:31;;;;;;;15.20;1.80;;;16.60;99.90;;;;;;5110618;28;20477;-86
2021/07/31 00:18:58;;;;;;;13.60;1.27;;;16.60;99.90;;;;;;5113521;28;20440;-86
2021/07/31 00:21:25;;;;;;;13.80;2.27;;;16.60;99.90;;;;;;5109963;28;20547;-84
2021/07/31 00:23:52;;;;;;;13.83;1.43;;;16.70;99.90;;;;;;5109711;27;20450;-85
2021/07/31 00:26:19;;;;;;;13.27;1.70;;;16.70;99.90;;;;;;5110480;28;20825;-84
2021/07/31 00:28:46;;;;;;;13.60;1.10;;;16.70;99.90;;;;;;5105547;28;20498;-85
2021/07/31 00:31:14;;;;;;;13.50;1.50;;;16.70;99.90;;;;;;5121323;28;20481;-85
2021/07/31 00:33:41;;;;;;;12.10;1.67;;;16.60;99.90;;;;;;5126552;28;20451;-85
2021/07/31 00:36:07;;;;;;;13.33;1.30;;;16.50;99.90;;;;;;5125194;28;20560;-85
2021/07/31 00:38:34;;;;;;;17.90;2.03;;;16.60;99.90;;;;;;5121502;28;20443;-86
2021/07/31 00:41:01;;;;;;;13.00;1.40;;;16.70;99.90;;;;;;5120375;28;20490;-85
2021/07/31 00:43:28;;;;;;;14.20;1.70;;;16.70;99.90;;;;;;5123262;28;20448;-85
2021/07/31 00:45:55;;;;;;;16.60;1.70;;;16.70;99.90;;;;;;5120920;28;20450;-86
2021/07/31 00:48:23;;;;;;;13.73;1.40;;;16.80;99.90;;;;;;5112949;27;20543;-85
2021/07/31 00:50:51;;;;;;;15.33;1.50;;;16.90;99.90;;;;;;5103716;28;21086;-86
2021/07/31 00:53:18;;;;;;;14.20;1.20;;;16.90;99.90;;;;;;5105867;28;20460;-85
2021/07/31 00:55:45;;;;;;;17.70;1.60;;;17.00;99.90;;;;;;5103195;28;20660;-86
2021/07/31 00:58:12;;;;;;;14.73;1.43;;;17.00;99.90;;;;;;5104389;28;20532;-86
2021/07/31 01:00:40;;;;;;;13.63;1.47;;;17.00;99.90;;;;;;5103593;28;20464;-85
2021/07/31 01:03:06;;;;;;;17.23;1.70;;;17.10;99.90;;;;;;5114962;28;20467;-84
2021/07/31 01:05:36;;;;;;;15.83;1.33;;;17.10;99.90;;;;;;5127236;28;20448;-86
2021/07/31 01:08:03;;;;;;;14.73;1.67;;;17.20;99.90;;;;;;5125841;28;20517;-86
2021/07/31 01:10:32;;;;;;;18.00;1.50;;;17.20;99.90;;;;;;5127001;28;20469;-85
2021/07/31 01:12:59;;;;;;;16.67;1.67;;;17.20;99.90;;;;;;5126456;27;20448;-85
2021/07/31 01:15:26;;;;;;;18.03;1.60;;;17.20;99.90;;;;;;5126458;28;20974;-85
2021/07/31 01:17:53;;;;;;;15.63;1.40;;;17.20;99.90;;;;;;5111962;28;20519;-86
2021/07/31 01:20:20;;;;;;;16.53;1.70;;;17.20;99.90;;;;;;5122565;28;20559;-85
2021/07/31 01:22:48;;;;;;;16.23;1.60;;;17.30;99.90;;;;;;5108981;28;20446;-85
2021/07/31 01:25:15;;;;;;;16.67;1.57;;;17.30;99.90;;;;;;5115777;28;20552;-84
2021/07/31 01:27:42;;;;;;;18.07;1.77;;;17.30;99.90;;;;;;5117418;28;20509;-84
2021/07/31 01:30:10;;;;;;;17.50;1.40;;;17.30;99.90;;;;;;5111887;28;20469;-85
2021/07/31 01:32:37;;;;;;;19.93;1.67;;;17.30;99.90;;;;;;5104208;28;20961;-85
2021/07/31 01:35:04;;;;;;;16.93;1.80;;;17.30;99.90;;;;;;5102020;28;20557;-85
2021/07/31 01:37:32;;;;;;;16.03;1.90;;;17.30;99.90;;;;;;5101821;28;20486;-84
2021/07/31 01:40:00;;;;;;;16.67;1.80;;;17.30;99.90;;;;;;5101148;28;20843;-85
2021/07/31 01:42:27;;;;;;;16.70;1.90;;;17.30;99.90;;;;;;5102443;28;20453;-84
2021/07/31 01:44:54;;;;;;;15.00;1.40;;;17.20;99.90;;;;;;5102092;28;20453;-85
2021/07/31 01:47:21;;;;;;;19.77;2.20;;;17.30;99.90;;;;;;5104198;28;20439;-85
2021/07/31 01:49:47;;;;;;;16.00;2.50;;;17.30;99.90;;;;;;5105054;28;20468;-85
2021/07/31 01:52:14;;;;;;;15.13;1.77;;;17.30;99.90;;;;;;5124487;28;20538;-85
2021/07/31 01:54:41;;;;;;;15.97;1.53;;;17.30;99.90;;;;;;5122738;28;20824;-85
2021/07/31 01:57:09;;;;;;;14.60;1.30;;;17.30;99.90;;;;;;5122174;28;20485;-86
2021/07/31 01:59:36;;;;;;;15.53;1.40;;;17.30;99.90;;;;;;5121705;28;20453;-85
2021/07/31 02:02:03;;;;;;;16.47;1.77;;;17.30;99.90;;;;;;5120898;28;20451;-85
2021/07/31 02:04:30;;;;;;;15.70;1.50;;;17.20;99.90;;;;;;5096859;28;20438;-86
2021/07/31 02:06:56;;;;;;;17.03;1.50;;;17.40;99.90;;;;;;5089038;28;20826;-85
2021/07/31 02:09:23;;;;;;;16.13;1.50;;;17.20;99.90;;;;;;5108621;28;20449;-85
2021/07/31 02:11:50;;;;;;;14.90;2.10;;;17.30;99.90;;;;;;5121895;28;20450;-85
2021/07/31 02:14:18;;;;;;;17.70;1.97;;;17.20;99.90;;;;;;5121297;28;20467;-86
2021/07/31 02:16:45;;;;;;;14.50;1.57;;;17.20;99.90;;;;;;5123073;28;20484;-85
2021/07/31 02:19:12;;;;;;;16.40;1.90;;;17.20;99.90;;;;;;5122229;28;20455;-84
2021/07/31 02:21:39;;;;;;;16.43;1.97;;;17.20;99.90;;;;;;5108761;28;20853;-85
2021/07/31 02:24:06;;;;;;;17.33;1.90;;;17.20;99.90;;;;;;5101508;28;20450;-85
2021/07/31 02:26:33;;;;;;;14.50;1.70;;;17.20;99.90;;;;;;5102762;28;20805;-85
2021/07/31 02:28:59;;;;;;;20.10;3.43;;;17.20;99.90;;;;;;5101056;28;20452;-85
2021/07/31 02:31:27;;;;;;;16.60;2.27;;;17.20;99.90;;;;;;5102036;28;20481;-84
2021/07/31 02:33:54;;;;;;;17.10;2.17;;;17.20;99.90;;;;;;5100441;28;20636;-85
2021/07/31 02:36:21;;;;;;;18.83;1.80;;;17.20;99.90;;;;;;5101046;28;20581;-85
2021/07/31 02:38:48;;;;;;;18.20;1.63;;;17.20;99.90;;;;;;5101408;28;20458;-85
2021/07/31 02:41:15;;;;;;;15.00;1.60;;;17.20;99.90;;;;;;5113974;28;20813;-85
2021/07/31 02:43:42;;;;;;;15.57;2.13;;;17.20;99.90;;;;;;5124347;28;20459;-85
2021/07/31 02:46:10;;;;;;;15.70;1.83;;;17.20;99.90;;;;;;5122811;28;20822;-86
2021/07/31 02:48:39;;;;;;;17.00;1.97;;;17.20;99.90;;;;;;5123473;28;20963;-86
2021/07/31 02:51:08;;;;;;;15.70;1.60;;;17.20;99.90;;;;;;5121538;28;20994;-86
2021/07/31 02:53:35;;;;;;;14.93;1.90;;;17.10;99.90;;;;;;5121760;28;20453;-85
2021/07/31 02:56:02;;;;;;;16.83;1.90;;;17.20;99.90;;;;;;5123724;28;20452;-85
2021/07/31 02:58:28;;;;;;;15.57;2.20;;;17.10;99.90;;;;;;5121383;28;20442;-85
2021/07/31 03:00:56;;;;;;;17.70;2.20;;;17.10;99.90;;;;;;5131523;28;20504;-84
2021/07/31 03:03:22;;;;;;;14.47;2.10;;;17.10;99.90;;;;;;5132207;28;20451;-84
2021/07/31 03:05:57;;;;;;;15.20;1.53;;;17.10;99.90;;;;;;5133146;28;20483;-85
2021/07/31 03:08:27;;;;;;;16.13;2.13;;;17.00;99.90;;;;;;5125479;28;20448;-84
2021/07/31 03:10:56;;;;;;;19.00;2.00;;;16.90;99.90;;;;;;5113331;28;20478;-84
2021/07/31 03:13:23;;;;;;;13.90;2.10;;;17.00;99.90;;;;;;5109799;28;20449;-84
2021/07/31 03:15:50;;;;;;;15.50;2.50;;;16.90;99.90;;;;;;5100815;28;20452;-83
2021/07/31 03:18:17;;;;;;;19.33;2.10;;;16.90;99.90;;;;;;5115997;28;20479;-84
2021/07/31 03:20:47;;;;;;;15.60;1.90;;;17.00;99.90;;;;;;5127441;28;20478;-85
2021/07/31 03:23:17;;;;;;;14.70;1.50;;;17.00;99.90;;;;;;5126994;27;20444;-84
2021/07/31 03:25:44;;;;;;;16.53;2.07;;;17.00;99.90;;;;;;5122338;28;20528;-85
2021/07/31 03:28:11;;;;;;;18.70;3.50;;;17.10;99.90;;;;;;5120543;28;20444;-85
2021/07/31 03:30:42;;;;;;;17.80;2.23;;;17.00;99.90;;;;;;5116157;28;20466;-84
2021/07/31 03:33:09;;;;;;;17.07;2.33;;;17.10;99.90;;;;;;5102649;28;20476;-82
2021/07/31 03:35:37;;;;;;;17.37;2.30;;;17.10;99.90;;;;;;5101956;28;20585;-83
2021/07/31 03:38:04;;;;;;;15.97;2.20;;;17.00;99.90;;;;;;5107554;28;20480;-83
2021/07/31 03:40:32;;;;;;;16.03;1.90;;;17.20;99.90;;;;;;5121627;28;21025;-84
2021/07/31 03:42:59;;;;;;;15.00;1.87;;;17.20;99.90;;;;;;5122781;28;20444;-83
2021/07/31 03:45:26;;;;;;;16.93;2.10;;;17.10;99.90;;;;;;5121183;28;20477;-84
2021/07/31 03:47:53;;;;;;;18.30;2.30;;;17.10;99.90;;;;;;5111642;28;20454;-82
2021/07/31 03:50:21;;;;;;;18.17;2.33;;;17.10;99.90;;;;;;5099706;28;20465;-83
2021/07/31 03:52:48;;;;;;;23.23;2.23;;;17.10;99.90;;;;;;5100508;28;20929;-84
2021/07/31 03:55:15;;;;;;;14.57;1.60;;;17.10;99.90;;;;;;5101144;28;20450;-84
2021/07/31 03:57:43;;;;;;;15.70;1.80;;;17.10;99.90;;;;;;5100647;28;20478;-83
2021/07/31 04:00:11;;;;;;;14.80;1.73;;;17.10;99.90;;;;;;5103551;28;20483;-83
2021/07/31 04:02:37;;;;;;;21.47;2.17;;;17.20;99.90;;;;;;5104724;28;20447;-83
2021/07/31 04:05:05;;;;;;;17.23;2.13;;;17.20;99.90;;;;;;5115782;28;20454;-82
2021/07/31 04:07:32;;;;;;;15.47;1.60;;;17.20;99.90;;;;;;5117431;28;20444;-80
2021/07/31 04:09:58;;;;;;;26.60;2.27;;;17.10;99.90;;;;;;5116400;28;20468;-84
2021/07/31 04:12:25;;;;;;;16.97;2.23;;;17.10;99.90;;;;;;5117058;28;20473;-82
2021/07/31 04:14:54;;;;;;;16.90;2.30;;;17.10;99.90;;;;;;5118204;28;20512;-83
2021/07/31 04:17:20;;;;;;;16.50;1.73;;;17.10;99.90;;;;;;5107726;28;20478;-84
2021/07/31 04:19:47;;;;;;;15.37;2.10;;;17.10;99.90;;;;;;5104346;28;20469;-83
2021/07/31 04:22:14;;;;;;;16.53;1.90;;;17.10;99.90;;;;;;5120418;28;20445;-83
2021/07/31 04:24:41;;;;;;;14.83;1.80;;;17.10;99.90;;;;;;5104521;27;20457;-83
2021/07/31 04:27:08;;;;;;;17.02;2.10;;;17.10;99.90;;;;;;5098818;28;20432;-87
2021/07/31 04:29:34;;;;;;;18.70;2.40;;;17.10;99.90;;;;;;5095788;28;20685;-87
2021/07/31 04:32:03;;;;;;;17.70;1.87;;;17.10;99.90;;;;;;5096549;28;20446;-87
2021/07/31 04:34:30;;;;;;;19.10;2.97;;;17.00;99.90;;;;;;5096930;28;20458;-88
2021/07/31 04:36:57;;;;;;;16.20;1.77;;;17.00;99.90;;;;;;5097824;28;20496;-86
2021/07/31 04:39:25;;;;;;;16.70;1.87;;;17.00;99.90;;;;;;5098725;28;20541;-85
2021/07/31 04:41:52;;;;;;;16.00;2.10;;;17.00;99.90;;;;;;5097030;28;20911;-84
2021/07/31 04:44:18;;;;;;;14.90;2.00;;;16.90;99.90;;;;;;5096708;28;20448;-87
2021/07/31 04:46:45;;;;;;;15.43;2.30;;;16.90;99.90;;;;;;5113064;22;20491;-81
2021/07/31 04:49:13;;;;;;;14.80;2.10;;;17.00;99.90;;;;;;5085576;28;20602;-81
2021/07/31 04:51:40;;;;;;;18.43;2.30;;;17.00;99.90;;;;;;5083203;28;20447;-81
2021/07/31 04:54:07;;;;;;;14.40;2.00;;;17.00;99.90;;;;;;5083592;28;21041;-80
2021/07/31 04:56:34;;;;;;;13.73;1.80;;;17.00;99.90;;;;;;5103305;28;20470;-82
2021/07/31 04:59:01;;;;;;;14.33;1.77;;;17.00;99.90;;;;;;5103723;28;20452;-81
2021/07/31 05:01:28;;;;;;;18.83;2.03;;;17.00;99.90;;;;;;5100556;28;20452;-80
2021/07/31 05:03:54;;;;;;;14.07;1.97;;;17.00;99.90;;;;;;5099234;28;20446;-82
2021/07/31 05:06:23;;;;;;;16.97;2.20;;;16.90;99.90;;;;;;5091278;28;20474;-81
2021/07/31 05:08:50;;;;;;;16.63;2.20;;;16.90;99.90;;;;;;5077034;28;20516;-80
2021/07/31 05:11:18;;;;;;;16.80;2.00;;;16.90;99.90;;;;;;5077857;28;20447;-80
2021/07/31 05:13:45;;;;;;;14.50;2.33;;;16.90;99.90;;;;;;5079752;28;20454;-80
2021/07/31 05:16:15;;;;;;;15.50;2.20;;;17.00;99.90;;;;;;5080637;28;20475;-80
2021/07/31 05:18:42;;;;;;;14.97;2.23;;;17.00;99.90;;;;;;5082637;28;20485;-79
2021/07/31 05:21:10;;;;;;;18.23;3.13;;;17.10;99.90;;;;;;5077382;28;20451;-79
2021/07/31 05:23:38;;;;;;;15.00;1.87;;;17.00;99.90;;;;;;5079419;28;20452;-79
2021/07/31 05:26:08;;;;;;;17.00;2.00;;;17.00;99.90;;;;;;5082693;28;20465;-82
2021/07/31 05:28:35;;;;;;;16.03;2.57;;;17.00;99.90;;;;;;5088533;28;20470;-82
2021/07/31 05:31:02;;;;;;;15.90;2.00;;;17.10;99.90;;;;;;5092365;28;20457;-84
2021/07/31 05:33:29;;;;;;;14.50;2.20;;;17.10;99.90;;;;;;5095419;28;20457;-82
2021/07/31 05:35:56;;;;;;;16.20;2.13;;;17.10;99.90;;;;;;5093208;28;20462;-82
2021/07/31 05:38:22;;;;;;;15.93;2.07;;;17.20;99.90;;;;;;5093883;28;21009;-82
2021/07/31 05:40:51;;;;;;;18.93;2.37;;;17.10;99.90;;;;;;5093399;28;20502;-83
2021/07/31 05:43:18;;;;;;;13.27;1.70;;;17.10;99.90;;;;;;5092707;28;20445;-83
2021/07/31 05:45:47;;;;;;;17.37;1.80;;;17.10;99.90;;;;;;5089197;28;20492;-83
2021/07/31 05:48:14;;;;;;;14.90;2.00;;;17.00;99.90;;;;;;5092811;28;20439;-82
2021/07/31 05:50:40;;;;;;;16.53;2.00;;;17.10;99.90;;;;;;5091309;28;20839;-82
2021/07/31 05:53:08;;;;;;;18.80;2.60;;;17.10;99.90;;;;;;5086503;28;20520;-82
2021/07/31 05:55:34;;;;;;;17.50;1.83;;;17.10;99.90;;;;;;5083763;28;20462;-81
2021/07/31 05:58:03;;;;;;;16.33;2.37;;;17.30;99.90;;;;;;5092427;28;20488;-81
2021/07/31 06:00:30;;;;;;;16.07;2.10;;;17.30;99.90;;;;;;5081906;28;20448;-82
2021/07/31 06:02:57;;;;;;;14.07;2.50;;;17.20;99.90;;;;;;5092150;28;20455;-82
2021/07/31 06:05:24;;;;;;;15.03;2.07;;;17.20;99.90;;;;;;5080927;28;20796;-81
2021/07/31 06:07:51;;;;;;;14.13;1.90;;;17.20;99.90;;;;;;5092907;28;20495;-81
2021/07/31 06:10:18;;;;;;;16.20;2.03;;;17.20;99.90;;;;;;5091970;28;20454;-81
2021/07/31 06:12:44;;;;;;;13.27;1.90;;;17.20;99.90;;;;;;5086686;28;20465;-82
2021/07/31 06:15:13;;;;;;;16.90;2.10;;;17.10;99.90;;;;;;5085743;28;20453;-83
2021/07/31 06:17:40;;;;;;;16.53;2.70;;;17.10;99.90;;;;;;5097703;28;20482;-82
2021/07/31 06:20:09;;;;;;;14.50;2.00;;;17.10;99.90;;;;;;5086655;28;20456;-81
2021/07/31 06:22:36;;;;;;;18.77;2.30;;;17.20;99.90;;;;;;5079029;28;20967;-83
2021/07/31 06:25:04;;;;;;;17.77;2.20;;;17.30;99.90;;;;;;5082246;28;20520;-81
2021/07/31 06:27:30;;;;;;;19.13;2.60;;;17.40;99.90;;;;;;5094470;28;20438;-82
2021/07/31 06:29:57;;;;;;;14.47;2.30;;;17.40;99.90;;;;;;5088770;28;20476;-82
2021/07/31 06:32:25;;;;;;;15.13;2.13;;;17.50;99.90;;;;;;5083727;28;20454;-83
2021/07/31 06:37:33;;;;;;;14.63;2.33;;;17.50;99.90;;;;;;5082348;28;20487;-82
2021/07/31 06:40:00;;;;;;;14.90;2.10;;;17.40;99.90;;;;;;5087355;28;20458;-84
2021/07/31 06:42:27;;;;;;;17.07;2.60;;;17.40;99.90;;;;;;5080513;28;20443;-84
2021/07/31 06:44:53;;;;;;;15.67;2.37;;;17.40;99.90;;;;;;5092800;28;20439;-83
2021/07/31 06:47:20;;;;;;;13.00;1.63;;;17.50;99.90;;;;;;5099020;28;20509;-83
2021/07/31 06:49:48;;;;;;;14.87;2.50;;;17.60;99.90;;;;;;5099204;28;20658;-83
2021/07/31 06:52:15;;;;;;;14.30;2.23;;;17.50;99.90;;;;;;5097537;28;20839;-83
2021/07/31 06:54:42;;;;;;;16.67;2.73;;;17.50;99.90;;;;;;5088495;28;20454;-82
2021/07/31 06:57:10;;;;;;;14.13;2.03;;;17.60;99.90;;;;;;5092587;28;20480;-82
2021/07/31 06:59:36;;;;;;;13.90;2.13;;;17.60;99.90;;;;;;5080598;28;20469;-83
2021/07/31 07:02:04;;;;;;;14.83;2.20;;;17.70;99.90;;;;;;5096766;28;20541;-80
2021/07/31 07:04:30;;;;;;;31.00;3.47;;;17.80;99.90;;;;;;5071220;28;20443;-82
2021/07/31 07:06:59;;;;;;;15.30;2.40;;;17.90;99.90;;;;;;5098650;28;20497;-82
2021/07/31 07:09:27;;;;;;;14.33;2.17;;;17.90;99.90;;;;;;5104312;28;20439;-82
2021/07/31 07:11:56;;;;;;;13.87;2.40;;;17.90;99.90;;;;;;5093995;28;20454;-82
2021/07/31 07:14:23;;;;;;;15.07;2.40;;;18.00;99.90;;;;;;5085341;28;20470;-82
2021/07/31 07:16:50;;;;;;;17.00;2.40;;;18.00;99.90;;;;;;5084851;28;20488;-81
2021/07/31 07:19:17;;;;;;;14.43;2.27;;;17.90;99.90;;;;;;5083605;28;20491;-81
2021/07/31 07:21:44;;;;;;;15.10;2.50;;;17.90;99.90;;;;;;5084206;28;20451;-81
2021/07/31 07:24:12;;;;;;;14.83;2.23;;;17.90;99.90;;;;;;5084151;28;20457;-82
2021/07/31 07:26:38;;;;;;;14.73;2.37;;;17.80;99.90;;;;;;5088731;28;20466;-83
2021/07/31 07:29:05;;;;;;;13.90;1.80;;;17.80;99.90;;;;;;5103685;28;20519;-82
2021/07/31 07:31:32;;;;;;;14.10;2.37;;;18.10;99.90;;;;;;5100002;28;20828;-83
2021/07/31 07:33:59;;;;;;;20.70;2.33;;;18.20;99.90;;;;;;5097284;28;20460;-83
2021/07/31 07:36:26;;;;;;;16.83;1.93;;;18.30;99.90;;;;;;5100505;28;21012;-84
2021/07/31 07:38:53;;;;;;;14.70;1.97;;;18.40;99.90;;;;;;5097504;28;20485;-82
2021/07/31 07:41:21;;;;;;;18.73;3.03;;;18.40;99.90;;;;;;5098060;28;20491;-83
2021/07/31 07:43:48;;;;;;;14.97;2.53;;;18.60;99.90;;;;;;5094633;28;20488;-84
2021/07/31 07:46:15;;;;;;;17.00;2.33;;;18.60;99.90;;;;;;5091704;28;20482;-84
2021/07/31 07:48:42;;;;;;;15.00;1.80;;;18.60;99.90;;;;;;5098911;28;20456;-84
2021/07/31 07:51:09;;;;;;;15.80;1.97;;;18.50;99.90;;;;;;5100634;28;20451;-84
2021/07/31 07:53:36;;;;;;;15.57;2.17;;;18.50;99.90;;;;;;5099959;28;20457;-82
2021/07/31 07:56:03;;;;;;;15.43;2.03;;;18.50;99.90;;;;;;5098574;28;20471;-83
2021/07/31 07:58:32;;;;;;;15.23;1.60;;;18.60;99.90;;;;;;5100123;28;20480;-83
2021/07/31 08:00:58;;;;;;;16.70;1.80;;;18.50;99.90;;;;;;5101481;28;20465;-83
2021/07/31 08:03:25;;;;;;;26.97;2.10;;;18.40;99.90;;;;;;5081678;28;20484;-84
2021/07/31 08:05:52;;;;;;;15.60;1.97;;;18.50;99.90;;;;;;5080585;28;20485;-84
2021/07/31 08:08:19;;;;;;;15.60;1.90;;;18.50;99.90;;;;;;5081311;28;20812;-82
2021/07/31 08:10:46;;;;;;;16.50;3.20;;;18.60;99.90;;;;;;5079752;28;20449;-82
2021/07/31 08:13:12;;;;;;;14.97;1.47;;;18.60;99.90;;;;;;5077581;28;20497;-81
2021/07/31 08:15:41;;;;;;;15.60;1.93;;;18.70;99.90;;;;;;5077440;28;20561;-82
2021/07/31 08:18:07;;;;;;;15.10;1.63;;;18.70;99.90;;;;;;5078234;28;20746;-83
2021/07/31 08:20:34;;;;;;;19.00;1.70;;;18.80;99.90;;;;;;5080297;28;20966;-84
2021/07/31 08:23:01;;;;;;;17.20;1.73;;;18.90;99.90;;;;;;5082873;28;20541;-83
2021/07/31 08:25:28;;;;;;;16.87;2.17;;;19.10;99.90;;;;;;5082481;28;20478;-84
2021/07/31 08:27:55;;;;;;;15.30;1.80;;;19.00;99.90;;;;;;5092239;28;20954;-83
2021/07/31 08:30:22;;;;;;;17.90;1.80;;;19.00;99.90;;;;;;5099154;28;20449;-83
2021/07/31 08:32:50;;;;;;;19.93;2.07;;;18.90;99.90;;;;;;5100275;28;20457;-82
2021/07/31 08:35:17;;;;;;;16.97;1.97;;;18.80;99.90;;;;;;5101723;28;20449;-82
2021/07/31 08:37:45;;;;;;;20.00;2.10;;;18.80;99.90;;;;;;5101678;28;20529;-82
2021/07/31 08:40:13;;;;;;;15.70;1.93;;;18.80;99.90;;;;;;5103259;28;20982;-84
2021/07/31 08:42:41;;;;;;;15.77;1.77;;;18.90;99.90;;;;;;5104352;28;20453;-84
2021/07/31 08:45:11;;;;;;;14.23;1.57;;;18.90;99.90;;;;;;5092257;28;20535;-84
2021/07/31 08:47:38;;;;;;;14.40;1.87;;;19.00;99.90;;;;;;5088771;28;20457;-83
2021/07/31 08:50:10;;;;;;;17.00;2.00;;;18.80;99.90;;;;;;5078852;28;20542;-83
2021/07/31 08:52:38;;;;;;;17.97;2.10;;;18.70;99.90;;;;;;5080570;28;20459;-81
2021/07/31 08:55:05;;;;;;;16.00;2.10;;;18.80;99.90;;;;;;5089986;28;20480;-85
2021/07/31 08:57:32;;;;;;;18.90;2.10;;;19.00;99.90;;;;;;5085985;28;20449;-84
2021/07/31 08:59:59;;;;;;;16.40;2.07;;;18.90;99.90;;;;;;5091178;28;20901;-86
2021/07/31 09:02:28;;;;;;;15.97;2.37;;;18.90;99.90;;;;;;5080275;28;20462;-85
2021/07/31 09:04:57;;;;;;;16.17;2.07;;;18.80;99.90;;;;;;5082015;28;20858;-84
2021/07/31 09:07:25;;;;;;;16.47;1.70;;;18.90;99.90;;;;;;5081006;28;20876;-85
2021/07/31 09:09:52;;;;;;;18.20;2.37;;;19.10;99.90;;;;;;5082028;28;20525;-85
2021/07/31 09:12:19;;;;;;;17.80;2.07;;;19.40;99.90;;;;;;5079538;28;20474;-84
2021/07/31 09:14:47;;;;;;;22.63;1.97;;;19.90;99.90;;;;;;5081055;28;20455;-85
2021/07/31 09:17:25;;;;;;;22.50;2.83;;;20.60;99.90;;;;;;5080603;28;20553;-83
2021/07/31 09:19:53;;;;;;;20.07;1.83;;;20.80;99.90;;;;;;5081751;28;20514;-85
2021/07/31 09:22:20;;;;;;;17.60;2.13;;;20.60;99.90;;;;;;5083321;28;20891;-84
2021/07/31 09:25:09;;;;;;;23.77;2.50;;;20.20;99.90;;;;;;5084754;28;20451;-85
2021/07/31 09:27:36;;;;;;;17.93;1.73;;;20.00;99.90;;;;;;5082974;28;20970;-86
2021/07/31 09:30:05;;;;;;;17.30;1.70;;;20.00;99.90;;;;;;5081556;28;20485;-86
2021/07/31 09:32:40;;;;;;;16.67;1.90;;;20.00;99.90;;;;;;5081699;28;20451;-86
2021/07/31 09:35:23;;;;;;;21.20;1.80;;;19.90;99.90;;;;;;5082203;28;20535;-85
2021/07/31 09:37:51;;;;;;;17.80;2.00;;;19.50;99.90;;;;;;5076539;28;20486;-85
2021/07/31 09:40:30;;;;;;;16.87;1.80;;;19.40;99.90;;;;;;5077171;28;20490;-85
2021/07/31 09:42:56;;;;;;;17.43;2.07;;;19.20;99.90;;;;;;5077862;28;20461;-84
2021/07/31 09:45:33;;;;;;;16.57;2.30;;;19.20;99.90;;;;;;5078381;28;20446;-84
2021/07/31 09:48:01;;;;;;;18.20;2.10;;;19.30;99.90;;;;;;5080591;28;20465;-85
2021/07/31 09:50:40;;;;;;;17.50;2.20;;;19.30;99.90;;;;;;5089276;28;20453;-85
2021/07/31 09:53:11;;;;;;;16.10;2.20;;;19.20;99.90;;;;;;5078338;28;20461;-83
2021/07/31 09:55:44;;;;;;;19.30;3.40;;;19.40;99.90;;;;;;5079719;28;20513;-84
2021/07/31 09:58:14;;;;;;;17.70;2.50;;;19.20;99.90;;;;;;5091823;28;20449;-84
2021/07/31 10:00:43;;;;;;;17.20;2.40;;;19.10;99.90;;;;;;5099224;28;20933;-84
2021/07/31 10:03:11;;;;;;;20.83;2.23;;;19.20;99.90;;;;;;5099291;28;20930;-85
2021/07/31 10:05:39;;;;;;;17.77;1.80;;;19.20;99.90;;;;;;5090539;28;21210;-85
2021/07/31 10:08:07;;;;;;;17.33;2.13;;;19.30;99.90;;;;;;5077915;28;20451;-84
2021/07/31 10:10:34;;;;;;;17.77;2.90;;;19.40;99.90;;;;;;5077889;28;20455;-83
2021/07/31 10:13:04;;;;;;;19.43;2.40;;;19.30;99.90;;;;;;5077861;28;20457;-86
2021/07/31 10:15:31;;;;;;;17.67;2.20;;;19.10;99.90;;;;;;5079520;28;20994;-84
2021/07/31 10:17:59;;;;;;;17.73;2.03;;;19.00;99.90;;;;;;5078545;28;20801;-84
2021/07/31 10:20:28;;;;;;;18.17;2.10;;;19.00;99.90;;;;;;5078624;28;20494;-85
2021/07/31 10:22:56;;;;;;;16.47;1.73;;;19.00;99.90;;;;;;5090394;28;20545;-84
2021/07/31 10:25:24;;;;;;;19.83;1.90;;;19.40;99.90;;;;;;5099249;28;20457;-83
2021/07/31 10:27:54;;;;;;;18.37;2.20;;;20.20;99.90;;;;;;5099002;28;20815;-84
2021/07/31 10:30:31;;;;;;;18.57;2.20;;;20.70;99.90;;;;;;5098158;28;20442;-85
2021/07/31 10:32:58;;;;;;;20.10;2.23;;;20.60;99.90;;;;;;5097903;28;20912;-85
2021/07/31 10:35:36;;;;;;;21.70;2.60;;;20.60;99.90;;;;;;5097220;28;20549;-83
2021/07/31 10:38:05;;;;;;;19.60;2.30;;;20.90;99.90;;;;;;5095861;28;20450;-83
2021/07/31 10:40:53;;;;;;;20.80;2.20;;;21.60;99.90;;;;;;5076249;28;20475;-82
2021/07/31 10:43:20;;;;;;;21.30;2.13;;;22.10;99.90;;;;;;5074878;28;20447;-82
2021/07/31 10:45:51;;;;;;;19.70;2.07;;;22.10;99.90;;;;;;5071937;28;20477;-82
2021/07/31 10:48:29;;;;;;;19.47;2.17;;;22.00;99.90;;;;;;5074206;28;20494;-81
2021/07/31 10:53:48;;;;;;;19.80;2.00;;;21.60;99.90;;;;;;5112109;22;20554;-86
2021/07/31 10:56:17;;;;;;;19.70;2.33;;;21.50;99.90;;;;;;5093682;28;20446;-86
2021/07/31 10:59:19;;;;;;;21.50;2.00;;;22.00;99.90;;;;;;5093730;28;20478;-86
2021/07/31 11:01:48;;;;;;;20.47;2.03;;;22.10;99.90;;;;;;5097450;28;20466;-85
2021/07/31 11:04:54;;;;;;;19.53;2.07;;;22.10;99.90;;;;;;5096936;28;20452;-86
2021/07/31 11:07:25;;;;;;;19.70;1.90;;;21.70;99.90;;;;;;5085556;28;20449;-85
2021/07/31 11:10:30;;;;;;;20.37;1.80;;;21.40;99.90;;;;;;5096756;28;20541;-85
2021/07/31 11:12:57;;;;;;;18.47;2.03;;;20.80;99.90;;;;;;5096438;28;20482;-85
2021/07/31 11:15:24;;;;;;;18.30;1.80;;;20.80;99.90;;;;;;5094837;28;20962;-86
2021/07/31 11:17:57;;;;;;;17.70;1.87;;;20.60;99.90;;;;;;5097022;28;20458;-85
2021/07/31 11:20:26;;;;;;;15.27;1.87;;;20.50;99.90;;;;;;5096301;28;20490;-86
2021/07/31 11:22:54;;;;;;;17.70;2.20;;;20.40;99.90;;;;;;5096754;28;20474;-85
2021/07/31 11:25:22;;;;;;;14.60;1.77;;;20.30;99.90;;;;;;5098515;28;20464;-85
2021/07/31 11:27:57;;;;;;;14.80;2.07;;;20.20;99.90;;;;;;5097730;28;20946;-85
2021/07/31 11:30:41;;;;;;;16.50;1.90;;;20.10;99.90;;;;;;5098058;28;20442;-85
2021/07/31 11:33:24;;;;;;;12.93;1.50;;;19.90;99.90;;;;;;5097082;28;20462;-84
2021/07/31 11:35:53;;;;;;;13.70;1.40;;;19.90;99.90;;;;;;5098187;28;20553;-85
2021/07/31 11:38:29;;;;;;;13.40;1.80;;;19.90;99.90;;;;;;5096593;28;20530;-84
2021/07/31 11:41:08;;;;;;;13.50;1.87;;;20.00;99.90;;;;;;5094234;28;20485;-85
2021/07/31 11:43:49;;;;;;;15.13;2.00;;;20.20;99.90;;;;;;5096077;28;20471;-84
2021/07/31 11:46:35;;;;;;;15.50;2.17;;;20.30;99.90;;;;;;5096301;28;20460;-84
2021/07/31 11:49:05;;;;;;;14.50;2.00;;;20.40;99.90;;;;;;5100560;28;20478;-83
2021/07/31 11:51:32;;;;;;;14.30;1.87;;;20.50;99.90;;;;;;5100969;28;20504;-85
2021/07/31 11:54:06;;;;;;;14.50;1.93;;;20.70;99.90;;;;;;5108814;28;20449;-85
2021/07/31 11:56:33;;;;;;;14.60;1.77;;;20.60;99.90;;;;;;5109916;28;20445;-84
2021/07/31 11:59:02;;;;;;;13.37;1.53;;;20.80;99.90;;;;;;5111819;28;20491;-84
2021/07/31 12:01:29;;;;;;;14.63;2.07;;;20.90;99.90;;;;;;5083163;28;20474;-83
2021/07/31 12:03:57;;;;;;;15.33;1.80;;;21.00;99.90;;;;;;5095504;28;20454;-84
2021/07/31 12:06:40;;;;;;;14.53;2.40;;;20.90;99.90;;;;;;5099833;28;20450;-84
2021/07/31 12:09:09;;;;;;;14.00;1.60;;;20.70;99.90;;;;;;5098424;28;20438;-83
2021/07/31 12:11:41;;;;;;;15.00;1.77;;;20.60;99.90;;;;;;5094527;28;20472;-84
2021/07/31 12:14:44;;;;;;;12.10;1.90;;;20.60;99.90;;;;;;5073545;28;20451;-85
2021/07/31 12:17:22;;;;;;;14.20;1.73;;;20.50;99.90;;;;;;5091175;28;21025;-84
2021/07/31 12:19:54;;;;;;;12.30;1.90;;;20.40;99.90;;;;;;5096764;28;20550;-86
2021/07/31 12:22:25;;;;;;;16.67;2.33;;;20.40;99.90;;;;;;5098633;28;20564;-84
2021/07/31 12:25:13;;;;;;;23.83;3.20;;;20.30;99.90;;;;;;5106615;28;20478;-85
2021/07/31 12:27:59;;;;;;;15.37;2.40;;;20.20;99.90;;;;;;5117405;28;20434;-83
2021/07/31 12:30:29;;;;;;;16.50;1.83;;;20.30;99.90;;;;;;5112619;28;20445;-83
2021/07/31 12:33:20;;;;;;;14.77;2.20;;;20.30;99.90;;;;;;5101805;28;20466;-84
2021/07/31 12:35:48;;;;;;;17.70;1.97;;;20.70;99.90;;;;;;5099878;28;20507;-84
2021/07/31 12:38:22;;;;;;;14.80;2.60;;;20.90;99.90;;;;;;5096792;28;20481;-86
2021/07/31 12:40:53;;;;;;;14.17;1.90;;;21.10;99.90;;;;;;5094210;28;20485;-84
2021/07/31 12:43:21;;;;;;;15.07;1.53;;;21.50;99.90;;;;;;5094708;28;20465;-85
2021/07/31 12:45:51;;;;;;;16.27;1.77;;;21.60;99.90;;;;;;5093131;28;20453;-84
2021/07/31 12:48:18;;;;;;;16.43;1.80;;;21.50;99.90;;;;;;5099164;28;20441;-86
2021/07/31 12:50:45;;;;;;;15.87;2.00;;;21.30;99.90;;;;;;5098385;28;20452;-83